Pagina principale
METAR-TAF:

METAR-TAF

Aeroporti :

Aeroporto di Londra-City

Londra, Inghilterra

latitudine: 51-30N, longitudine: 000-03E, altezza: 5 m

Osservazione

Il bollettino è stato emesso 33 minuti fa, alle 06:20 UTC
Vento 7 kt da ovest/nord-ovest, variando fra ovest e nord/nord-ovest
Temperature 6°C
Umidità 87%
Pressione 1014 hPa
Visibilità 10 km o più
Poco nuvoloso ad un'altezza di 1200 ft

METAR: EGLC 180620Z AUTO 30007KT 260V340 9999 FEW012 06/04 Q1014

Ora: 06:53 (06:53 UTC)

Previsione

Il bollettino è stato emesso 1 ora e 59 minuti fa, alle 04:54 UTC
Previsione valida dal 18 alle 06 UTC al 18 alle 15 UTC
Vento 10 kt da nord/nord-ovest
Visibilità 10 km o più
Poco nuvoloso ad un'altezza di 3500 ft
Probabilità 30% :
Temporaneamente
dal 18 alle 06 UTC al 18 alle 12 UTC
Nuvoloso ad un'altezza di 1200 ft

TAF: EGLC 180454Z 1806/1815 34010KT 9999 FEW035 PROB30 TEMPO 1806/1812 BKN012

Osservazioni e previsioni meteorologiche di più di 4000 aeroporti (messaggi METAR e TAF).

Le stazioni disponibili sono rappresentate dai dischi gialli e rossi sulla carta.

Puntare il mouse per vedere il nome della stazione.

Clicca sopra per visualizzare le osservazioni e previsioni meteorologiche.

Per cambiare la mappa : fare clic sui pulsanti verdi con una croce nera per ingrandire, il pulsante verde con un trattino per diminuire, o sulla freccia verde per le mappe adiacenti.


METAR-TAF: